Latest Weather Observations for Maningrida Airport

IDD60801

Issued at 6:03 pm CST Sunday 1 February 2015 (issued every 30 minutes, with the page automatically refreshed every 10 minutes)

About weather observations | Map of weather stations | Latest weather observations for NT | Other Formats
Station Details ID: 014405 Name: MANINGRIDA AIRPORT Lat: -12.06 Lon: 134.23 Height: 28.1 m
Data from the previous 72 hours. | See also: Recent months at Maningrida Airport
Date/Time
CST
Temp
°C
App
Temp
°C
Dew
Point
Rel
Hum
%
Delta-T
°C
Wind Press
QNH
hPa
Press
MSL
hPa
Rain
since 9 am
mm
Dir
 
Spd
km/h
Gust
km/h
Spd
kts
Gust
kts
01/06:00pm 30.9 33.7 27.0 80 2.8 NNW 26 33 14 18 1005.0 1004.8 0.0
01/05:30pm 30.7 33.4 27.3 82 2.5 NNW 28 35 15 19 1004.8 1004.6 0.0
01/05:00pm 31.2 34.4 28.0 83 2.3 NNW 28 33 15 18 1004.5 1004.3 0.0
01/04:30pm 31.0 33.8 28.0 84 2.2 N 30 37 16 20 1004.3 1004.1 0.0
01/04:00pm 31.3 34.8 28.5 85 2.1 NNW 28 33 15 18 1004.4 1004.2 0.0
01/03:30pm 31.7 34.9 28.0 81 2.7 NNW 28 37 15 20 1004.8 1004.6 0.0
01/03:00pm 32.0 35.5 28.5 82 2.6 N 28 35 15 19 1004.9 1004.7 0.0
01/02:30pm 32.4 36.6 27.4 75 3.6 N 20 26 11 14 1005.2 1005.0 0.0
01/02:00pm 33.1 37.4 24.3 60 6.2 W 9 15 5 8 1005.5 1005.3 0.0
01/01:30pm 33.2 38.1 25.2 63 5.7 WNW 9 15 5 8 1006.0 1005.8 0.0
01/01:00pm 33.1 38.1 25.4 64 5.5 NW 9 15 5 8 1006.3 1006.1 0.0
01/12:30pm 33.3 38.8 26.1 66 5.2 W 9 19 5 10 1006.8 1006.6 0.0
01/12:00pm 32.3 36.7 25.6 67 4.8 WSW 13 20 7 11 1007.3 1007.1 0.0
01/11:30am 31.9 36.9 26.0 71 4.2 WSW 11 19 6 10 1007.7 1007.5 0.0
01/11:00am 31.7 36.7 26.0 72 4.1 WSW 11 17 6 9 1007.7 1007.5 0.0
01/10:30am 30.7 34.9 26.0 76 3.4 W 15 22 8 12 1007.6 1007.4 0.0
01/10:00am 30.6 35.9 26.5 79 2.9 W 11 15 6 8 1007.8 1007.6 0.0
01/09:30am 29.7 34.8 26.1 81 2.6 WNW 11 17 6 9 1007.9 1007.7 0.0
01/09:00am 29.0 34.4 26.6 87 1.7 W 11 15 6 8 1007.9 1007.7 5.8
01/08:30am 28.3 34.4 26.5 90 1.3 W 7 13 4 7 1007.8 1007.6 5.8
01/08:00am 27.4 32.7 25.8 91 1.1 W 9 13 5 7 1007.4 1007.2 5.8
01/07:30am 25.8 31.6 25.8 100 0.0 WSW 6 9 3 5 1007.2 1007.1 5.8
01/07:00am 24.9 31.3 24.9 100 0.0 CALM 0 0 0 0 1007.3 1007.1 5.8
01/06:30am 24.5 30.6 24.5 100 0.0 CALM 0 0 0 0 1007.2 1007.0 5.8
01/06:00am 24.5 30.6 24.5 100 0.0 CALM 0 0 0 0 1007.1 1006.9 5.8
01/05:30am 24.7 31.0 24.7 100 0.0 CALM 0 0 0 0 1007.0 1006.8 5.8
01/05:00am 24.8 30.4 24.8 100 0.0 SSE 4 9 2 5 1006.9 1006.7 5.8
01/04:30am 24.8 31.1 24.8 100 0.0 CALM 0 0 0 0 1006.5 1006.3 5.8
01/04:00am 25.0 31.5 25.0 100 0.0 CALM 0 0 0 0 1006.3 1006.1 5.8
01/03:30am 25.0 30.3 25.0 100 0.0 SW 6 7 3 4 1006.2 1006.0 5.8
01/03:00am 25.1 31.6 25.1 100 0.0 CALM 0 0 0 0 1006.5 1006.3 5.8
01/02:30am 25.0 31.5 25.0 100 0.0 CALM 0 6 0 3 1006.6 1006.4 5.8
01/02:00am 24.9 30.0 24.9 100 0.0 SW 7 11 4 6 1006.7 1006.5 5.8
01/01:30am 25.1 30.3 25.1 100 0.0 SW 7 11 4 6 1007.1 1006.9 5.8
01/01:00am 25.4 31.7 25.4 100 0.0 WSW 2 7 1 4 1007.3 1007.1 5.8
01/12:30am 25.5 32.3 25.5 100 0.0 CALM 0 6 0 3 1007.4 1007.2 5.8
01/12:00am 25.5 30.9 25.5 100 0.0 W 7 9 4 5 1007.8 1007.6 5.8
 
Date/Time
CST
Temp
°C
App
Temp
°C
Dew
Point
Rel
Hum
%
Delta-T
°C
Wind Press
QNH
hPa
Press
MSL
hPa
Rain
since 9 am
mm
Dir
 
Spd
km/h
Gust
km/h
Spd
kts
Gust
kts
31/11:30pm 25.6 32.4 25.6 100 0.0 CALM 0 6 0 3 1008.5 1008.3 5.8
31/11:00pm 25.5 30.9 25.5 100 0.0 WNW 7 11 4 6 1008.6 1008.4 5.8
31/10:30pm 25.9 31.8 25.9 100 0.0 W 6 9 3 5 1008.9 1008.7 5.8
31/10:00pm 26.0 31.4 26.0 100 0.0 NW 9 13 5 7 1008.6 1008.4 5.8
31/09:30pm 25.8 30.3 25.8 100 0.0 NW 13 19 7 10 1008.2 1008.0 5.8
31/09:00pm 25.4 31.3 25.4 100 0.0 WNW 4 9 2 5 1008.0 1007.8 5.8
31/08:30pm 25.2 31.0 25.2 100 0.0 WSW 4 9 2 5 1008.2 1008.0 5.6
31/08:00pm 25.3 30.2 25.3 100 0.0 NW 9 15 5 8 1007.6 1007.4 4.6
31/07:30pm 25.2 31.0 25.2 100 0.0 ENE 4 9 2 5 1007.4 1007.2 4.4
31/07:00pm 24.6 29.5 24.6 100 0.0 SSE 7 13 4 7 1007.5 1007.3 4.2
31/06:38pm 24.6 28.0 24.6 100 0.0 SSE 15 20 8 11 1006.4 1006.2 4.2
31/06:30pm 24.6 27.2 24.6 100 0.0 SSE 19 26 10 14 1006.4 1006.2 4.0
31/06:06pm 25.2 26.5 25.2 100 0.0 SSE 28 43 15 23 1006.0 1005.8 1.0
31/06:00pm 25.9 28.0 24.7 93 0.8 SSE 22 43 12 23 1006.2 1006.0 0.4
31/05:30pm 29.7 33.5 25.9 80 2.7 WNW 17 24 9 13 1004.6 1004.4 0.0
31/05:00pm 30.5 34.1 26.2 78 3.1 NW 19 32 10 17 1004.4 1004.2 0.0
31/04:30pm 31.7 34.0 27.4 78 3.1 NNW 30 35 16 19 1004.1 1003.9 0.0
31/04:00pm 31.7 34.6 27.6 79 3.0 NNW 28 35 15 19 1004.3 1004.1 0.0
31/03:30pm 31.4 33.8 26.4 75 3.6 NNW 26 33 14 18 1004.2 1004.0 0.0
31/03:00pm 32.0 34.9 26.5 72 4.0 NNW 24 35 13 19 1004.6 1004.4 0.0
31/02:30pm 34.3 37.7 23.3 52 7.7 W 11 20 6 11 1005.1 1004.9 0.0
31/02:00pm 34.3 37.8 24.2 55 7.1 WNW 13 22 7 12 1005.4 1005.2 0.0
31/01:30pm 33.6 36.5 23.9 57 6.8 WNW 15 22 8 12 1005.7 1005.5 0.0
31/01:00pm 33.5 36.4 23.8 57 6.8 W 15 22 8 12 1006.3 1006.1 0.0
31/12:30pm 33.1 36.1 24.0 59 6.4 W 15 24 8 13 1006.9 1006.7 0.0
31/12:00pm 32.8 35.6 24.3 61 6.0 WNW 17 28 9 15 1007.3 1007.1 0.0
31/11:30am 32.1 35.6 24.2 63 5.5 W 13 20 7 11 1007.5 1007.3 0.0
31/11:00am 31.9 35.1 25.0 67 4.9 WNW 17 24 9 13 1007.6 1007.4 0.0
31/10:30am 31.0 34.4 24.6 68 4.5 WNW 15 24 8 13 1007.7 1007.5 0.0
31/10:00am 30.3 33.5 24.4 70 4.1 W 15 24 8 13 1007.8 1007.6 0.0
31/09:30am 29.9 33.8 24.8 74 3.6 WSW 13 20 7 11 1008.0 1007.8 0.0
31/09:00am 29.5 33.1 25.0 77 3.2 W 15 24 8 13 1008.1 1007.9 0.0
31/08:30am 28.6 32.6 25.0 81 2.5 W 13 24 7 13 1008.1 1007.9 0.0
31/08:00am 27.7 31.9 24.7 84 2.1 W 11 19 6 10 1007.9 1007.7 0.0
31/07:30am 27.0 31.2 24.8 88 1.5 W 11 15 6 8 1007.8 1007.6 0.0
31/07:00am 26.0 30.7 25.0 94 0.7 W 9 15 5 8 1007.6 1007.4 0.0
31/06:30am 25.6 31.1 25.6 100 0.0 W 7 13 4 7 1007.1 1006.9 0.0
31/06:00am 25.5 30.6 25.5 100 0.0 W 9 15 5 8 1007.0 1006.8 0.0
31/05:30am 25.4 30.8 25.4 100 0.0 W 7 11 4 6 1006.8 1006.6 0.0
31/05:00am 25.4 30.7 25.2 99 0.1 W 7 9 4 5 1006.5 1006.3 0.0
31/04:30am 25.5 30.1 24.8 96 0.5 WNW 9 13 5 7 1006.7 1006.5 0.0
31/04:00am 25.6 30.1 24.6 94 0.7 W 9 13 5 7 1006.4 1006.2 0.0
31/03:30am 25.8 30.3 24.6 93 0.8 W 9 13 5 7 1006.6 1006.4 0.0
31/03:00am 25.6 30.7 24.6 94 0.7 WSW 6 9 3 5 1006.6 1006.4 0.0
31/02:30am 25.9 31.3 25.4 97 0.4 WNW 7 11 4 6 1006.8 1006.6 0.0
31/02:00am 26.1 31.4 25.2 95 0.6 W 7 11 4 6 1007.1 1006.9 0.0
31/01:30am 26.3 31.8 25.3 94 0.7 W 6 9 3 5 1007.6 1007.4 0.0
31/01:00am 26.6 32.3 25.9 96 0.5 W 7 13 4 7 1007.8 1007.6 0.0
31/12:30am 26.8 32.3 25.6 93 0.8 WSW 7 15 4 8 1008.2 1008.0 0.0
31/12:00am 26.8 32.5 25.6 93 0.8 WSW 6 11 3 6 1008.5 1008.3 0.0
 
Date/Time
CST
Temp
°C
App
Temp
°C
Dew
Point
Rel
Hum
%
Delta-T
°C
Wind Press
QNH
hPa
Press
MSL
hPa
Rain
since 9 am
mm
Dir
 
Spd
km/h
Gust
km/h
Spd
kts
Gust
kts
30/11:30pm 26.7 32.1 25.5 93 0.8 W 7 9 4 5 1008.9 1008.7 0.0
30/11:00pm 26.3 32.4 25.6 96 0.5 W 4 9 2 5 1009.1 1008.9 0.0
30/10:30pm 26.6 32.4 25.7 95 0.6 W 6 7 3 4 1008.9 1008.7 0.0
30/10:00pm 26.3 31.8 25.3 94 0.7 W 6 7 3 4 1008.8 1008.6 0.0
30/09:30pm 26.3 31.7 25.4 95 0.6 WSW 7 9 4 5 1008.9 1008.7 0.0
30/09:00pm 26.5 32.6 25.6 95 0.6 W 4 7 2 4 1008.5 1008.3 0.0
30/08:30pm 26.9 33.7 25.5 92 1.0 CALM 0 4 0 2 1008.2 1008.0 0.0
30/08:00pm 26.7 32.7 24.9 90 1.3 W 2 7 1 4 1007.5 1007.3 0.0
30/07:30pm 26.7 33.0 25.3 92 1.0 W 2 7 1 4 1007.0 1006.8 0.0
30/07:00pm 26.8 33.1 25.4 92 1.0 W 2 6 1 3 1006.8 1006.6 0.0
30/06:30pm 26.7 32.5 25.1 91 1.1 W 4 7 2 4 1006.9 1006.7 0.0
30/06:00pm 26.6 31.7 24.6 89 1.4 SSW 6 9 3 5 1006.4 1006.2 0.0
30/05:30pm 26.8 31.8 24.8 89 1.4 S 7 11 4 6 1006.3 1006.1 0.0
30/05:00pm 27.0 30.6 23.7 82 2.3 S 11 17 6 9 1005.9 1005.7 0.0
30/04:30pm 28.6 33.6 25.4 83 2.3 WSW 9 15 5 8 1005.9 1005.7 0.0
30/04:00pm 29.3 32.6 25.7 81 2.5 WNW 19 30 10 16 1005.2 1005.0 0.0
30/03:30pm 29.4 32.9 26.8 86 1.9 NW 22 33 12 18 1004.5 1004.3 0.0
30/03:00pm 30.7 32.3 26.8 80 2.8 NNW 32 39 17 21 1005.1 1004.9 0.0
30/02:30pm 30.6 31.9 26.5 79 2.9 NNW 32 41 17 22 1005.3 1005.1 0.0
30/02:00pm 31.5 32.5 26.3 74 3.7 NNW 33 41 18 22 1005.4 1005.2 0.0
30/01:30pm 31.1 32.7 26.8 78 3.1 N 32 41 17 22 1005.9 1005.7 0.0
30/01:00pm 31.3 33.6 26.8 77 3.2 N 28 33 15 18 1006.5 1006.3 0.0
30/12:30pm 31.2 33.7 27.1 79 3.0 NNW 28 39 15 21 1006.9 1006.7 0.0
30/12:00pm 31.0 33.6 26.7 78 3.1 N 26 33 14 18 1007.5 1007.3 0.0
30/11:30am 30.7 33.7 26.2 77 3.2 N 22 28 12 15 1007.7 1007.5 0.0
30/11:00am 30.5 34.2 25.8 76 3.3 NNW 17 20 9 11 1007.7 1007.5 0.0
30/10:30am 31.0 36.2 26.3 76 3.4 NW 11 19 6 10 1007.9 1007.7 0.0
30/10:00am 30.3 34.7 25.1 73 3.7 WNW 11 17 6 9 1007.9 1007.7 0.0
30/09:30am 29.7 34.2 25.2 77 3.2 WNW 11 19 6 10 1007.7 1007.5 0.0
30/09:00am 29.1 33.5 25.7 82 2.4 WNW 13 17 7 9 1007.7 1007.5 0.0
30/08:30am 28.5 33.8 25.9 86 1.8 W 9 19 5 10 1007.8 1007.6 0.0
30/08:00am 27.4 32.5 25.6 90 1.3 W 9 15 5 8 1007.6 1007.4 0.0
30/07:30am 27.2 32.3 25.6 91 1.1 WSW 9 17 5 9 1007.4 1007.2 0.0
30/07:00am 26.2 32.3 26.2 100 0.0 WNW 6 9 3 5 1007.3 1007.1 0.0
30/06:30am 25.7 31.5 25.7 100 0.0 WSW 6 9 3 5 1007.0 1006.8 0.0
30/06:00am 26.0 32.0 26.0 100 0.0 WSW 6 9 3 5 1006.6 1006.4 0.0
30/05:30am 26.2 31.5 25.9 98 0.2 W 9 13 5 7 1006.5 1006.3 0.0
30/05:00am 26.3 31.9 25.8 97 0.4 WSW 7 13 4 7 1006.3 1006.1 0.0
30/04:30am 26.4 32.0 25.7 96 0.5 WSW 7 11 4 6 1005.7 1005.5 0.0
30/04:00am 26.6 32.1 26.1 97 0.4 W 9 15 5 8 1005.8 1005.6 0.0
30/03:30am 26.7 32.2 26.2 97 0.4 WSW 9 13 5 7 1005.8 1005.6 0.0
30/03:00am 26.9 32.8 26.7 99 0.1 W 9 15 5 8 1005.9 1005.7 0.0
30/02:30am 27.3 33.4 27.0 98 0.2 W 9 17 5 9 1006.1 1005.9 0.0
30/02:00am 27.5 32.9 27.2 98 0.2 W 13 20 7 11 1006.1 1005.9 0.0
30/01:30am 27.7 33.5 27.2 97 0.4 WNW 11 17 6 9 1006.6 1006.4 0.0
30/01:00am 27.8 33.2 27.1 96 0.5 NW 13 17 7 9 1007.0 1006.8 0.0
30/12:30am 27.9 33.3 27.2 96 0.5 NW 13 20 7 11 1007.4 1007.2 0.0
30/12:00am 28.0 32.9 26.9 94 0.8 NW 15 20 8 11 1007.6 1007.4 0.0
 
Date/Time
CST
Temp
°C
App
Temp
°C
Dew
Point
Rel
Hum
%
Delta-T
°C
Wind Press
QNH
hPa
Press
MSL
hPa
Rain
since 9 am
mm
Dir
 
Spd
km/h
Gust
km/h
Spd
kts
Gust
kts
29/11:30pm 28.2 32.3 26.4 90 1.3 NW 17 24 9 13 1007.8 1007.6 0.0
29/11:00pm 28.4 32.7 26.6 90 1.3 NNW 17 26 9 14 1007.7 1007.5 0.0
29/10:30pm 28.5 32.6 26.9 91 1.1 NNW 19 28 10 15 1007.6 1007.4 0.0
29/10:00pm 28.5 32.7 27.1 92 1.0 NNW 19 28 10 15 1007.4 1007.2 0.0
29/09:30pm 28.6 32.8 27.0 91 1.2 NNW 19 24 10 13 1007.2 1007.0 0.0
29/09:00pm 28.5 33.4 26.9 91 1.1 NNW 15 20 8 11 1006.7 1006.5 0.0
29/08:30pm 28.4 32.7 26.6 90 1.3 NNW 17 22 9 12 1006.5 1006.3 0.0
29/08:00pm 28.5 32.3 26.5 89 1.4 NNW 19 24 10 13 1006.4 1006.2 0.0
29/07:30pm 28.7 31.7 26.1 86 1.9 NNW 22 28 12 15 1006.1 1005.9 0.0
29/07:00pm 29.0 32.9 26.0 84 2.1 N 17 24 9 13 1005.8 1005.6 0.0
29/06:30pm 29.1 32.8 25.7 82 2.4 N 17 20 9 11 1005.2 1005.0 0.0

Other Formats:

Comma delimited format used in spreadsheet applications
http://www.bom.gov.au/fwo/IDD60801/IDD60801.95142.axf

JavaScript Object Notation format (JSON) in row-major order
http://www.bom.gov.au/fwo/IDD60801/IDD60801.95142.json